Time;durP1;ratioP1;P1;durP2;ratioP2;P2;SDS_P1;SDS_P2;PMS_P1;PMS_P2;Temp;Humidity;BMP_temperature;BMP_pressure;BME280_temperature;BME280_humidity;BME280_pressure;Samples;Min_cycle;Max_cycle;Signal;HPM_P1;HPM_P2
2023/06/18 00:02:02;;;;;;;7.05;5.95;;;;;;;21.50;44.46;101096.63;5036996;28;20025;-71
2023/06/18 00:04:28;;;;;;;7.38;6.60;;;;;;;21.51;44.16;101107.31;5039728;28;20029;-71
2023/06/18 00:06:54;;;;;;;7.70;6.90;;;;;;;21.45;44.65;101105.19;5035549;28;20534;-70
2023/06/18 00:09:20;;;;;;;7.22;6.53;;;;;;;21.51;45.17;101109.16;5039194;28;20357;-71
2023/06/18 00:11:46;;;;;;;9.90;6.82;;;;;;;21.47;44.90;101107.75;5040556;28;20202;-71
2023/06/18 00:14:11;;;;;;;7.50;6.72;;;;;;;21.35;44.85;101096.19;5039783;28;20025;-70
2023/06/18 00:16:36;;;;;;;7.13;6.47;;;;;;;21.32;45.31;101094.63;5039072;28;20036;-71
2023/06/18 00:19:02;;;;;;;7.72;6.93;;;;;;;21.34;45.76;101094.47;5038428;28;20028;-71
2023/06/18 00:21:27;;;;;;;9.18;7.00;;;;;;;21.26;45.58;101095.16;5036600;28;20514;-71
2023/06/18 00:23:52;;;;;;;8.65;7.13;;;;;;;21.18;45.51;101097.69;5039600;28;20510;-71
2023/06/18 00:26:18;;;;;;;8.63;7.28;;;;;;;21.13;45.78;101086.44;5039913;28;20032;-71
2023/06/18 00:28:44;;;;;;;7.80;6.95;;;;;;;21.22;46.03;101092.88;5038723;28;20028;-71
2023/06/18 00:31:11;;;;;;;9.48;7.35;;;;;;;21.22;46.21;101084.75;5040240;28;20410;-72
2023/06/18 00:33:37;;;;;;;7.88;7.10;;;;;;;21.20;46.33;101087.59;5040793;28;20033;-71
2023/06/18 00:36:06;;;;;;;8.38;7.60;;;;;;;21.17;46.43;101087.88;5040187;28;20524;-71
2023/06/18 00:38:33;;;;;;;8.60;7.68;;;;;;;21.05;46.60;101084.44;5037208;28;20025;-71
2023/06/18 00:40:59;;;;;;;8.23;7.43;;;;;;;21.14;46.45;101090.84;5036224;28;20120;-71
2023/06/18 00:43:28;;;;;;;8.57;7.78;;;;;;;21.02;47.06;101076.59;5042266;28;20108;-71
2023/06/18 00:45:59;;;;;;;8.77;7.82;;;;;;;21.07;47.00;101084.31;5043095;28;20021;-71
2023/06/18 00:48:25;;;;;;;8.55;7.72;;;;;;;21.02;46.95;101065.75;5043437;28;20028;-71
2023/06/18 00:50:53;;;;;;;9.02;8.13;;;;;;;20.92;47.20;101072.19;5041462;28;20025;-71
2023/06/18 00:53:19;;;;;;;10.32;8.30;;;;;;;20.82;47.37;101073.00;5043159;28;20044;-71
2023/06/18 00:55:44;;;;;;;10.25;8.02;;;;;;;20.72;47.92;101069.41;5040500;28;20032;-71
2023/06/18 00:58:09;;;;;;;9.55;8.07;;;;;;;20.78;47.80;101068.03;5035296;28;20043;-71
2023/06/18 01:00:35;;;;;;;9.93;8.35;;;;;;;20.76;48.09;101070.84;5041428;28;20033;-71
2023/06/18 01:03:07;;;;;;;8.52;7.72;;;;;;;20.74;48.85;101072.84;5042672;28;20079;-71
2023/06/18 01:05:33;;;;;;;8.35;7.60;;;;;;;20.75;48.86;101068.28;5039484;28;20066;-71
2023/06/18 01:08:06;;;;;;;11.57;7.72;;;;;;;20.70;48.96;101067.84;5025911;28;20428;-71
2023/06/18 01:10:32;;;;;;;8.63;7.88;;;;;;;20.67;48.65;101066.28;5042223;28;20036;-71
2023/06/18 01:12:58;;;;;;;9.40;8.35;;;;;;;20.53;48.73;101066.66;5042727;28;20032;-71
2023/06/18 01:15:27;;;;;;;9.07;8.27;;;;;;;20.54;49.07;101071.06;5038937;28;20501;-71
2023/06/18 01:17:56;;;;;;;9.13;8.18;;;;;;;20.49;49.71;101065.22;5039533;28;20029;-71
2023/06/18 01:20:25;;;;;;;11.32;8.32;;;;;;;20.40;49.35;101073.13;5022541;28;20028;-71
2023/06/18 01:23:09;;;;;;;10.23;9.18;;;;;;;20.37;49.57;101065.28;5042308;28;20259;-71
2023/06/18 01:25:37;;;;;;;11.15;9.10;;;;;;;20.37;49.69;101057.16;5025355;28;20036;-71
2023/06/18 01:28:07;;;;;;;11.65;9.38;;;;;;;20.24;49.89;101063.81;5038340;28;20036;-71
2023/06/18 01:30:36;;;;;;;12.35;11.15;;;;;;;20.18;50.00;101057.06;5016901;28;20049;-71
2023/06/18 01:33:03;;;;;;;11.65;10.45;;;;;;;20.13;50.09;101051.22;5019093;28;20029;-71
2023/06/18 01:35:29;;;;;;;13.02;11.55;;;;;;;20.07;50.38;101058.03;5021922;28;20025;-71
2023/06/18 01:38:36;;;;;;;12.98;11.68;;;;;;;20.06;49.46;101050.91;5020764;28;20037;-71
2023/06/18 01:41:08;;;;;;;12.52;11.23;;;;;;;20.01;50.73;101050.44;5018794;28;20052;-71
2023/06/18 01:43:46;;;;;;;12.95;11.63;;;;;;;19.96;50.72;101049.16;5022470;28;20025;-71
2023/06/18 01:46:16;;;;;;;14.15;11.40;;;;;;;19.93;51.33;101049.41;5022550;28;20021;-71
2023/06/18 01:48:46;;;;;;;13.40;12.10;;;;;;;19.85;51.33;101045.53;5023448;28;20029;-71
2023/06/18 01:51:15;;;;;;;13.45;11.70;;;;;;;19.80;52.02;101050.47;5020945;28;20060;-72
2023/06/18 01:53:42;;;;;;;13.40;11.90;;;;;;;19.78;51.76;101038.09;5023189;28;20026;-71
2023/06/18 01:56:09;;;;;;;13.05;11.82;;;;;;;19.74;52.06;101047.47;5017321;28;20025;-71
2023/06/18 01:58:36;;;;;;;13.02;11.68;;;;;;;19.70;52.37;101051.41;5023155;28;20036;-71
2023/06/18 02:01:02;;;;;;;13.82;12.27;;;;;;;19.60;52.40;101044.03;5018830;28;20031;-71
2023/06/18 02:03:28;;;;;;;15.68;12.20;;;;;;;19.56;52.95;101036.34;5018728;28;20022;-71
2023/06/18 02:05:54;;;;;;;14.40;12.10;;;;;;;19.59;52.96;101044.19;5019976;28;20032;-72
2023/06/18 02:08:19;;;;;;;13.18;11.98;;;;;;;19.51;53.19;101036.75;5019925;28;20469;-71
2023/06/18 02:10:45;;;;;;;13.23;11.80;;;;;;;19.50;53.25;101036.88;5017847;28;20036;-70
2023/06/18 02:13:10;;;;;;;13.07;11.88;;;;;;;19.37;53.49;101029.81;5019301;28;20383;-71
2023/06/18 02:15:36;;;;;;;13.75;12.35;;;;;;;19.36;53.65;101038.06;5022443;28;20036;-71
2023/06/18 02:18:02;;;;;;;14.50;12.98;;;;;;;19.27;53.66;101026.22;5022099;28;20043;-71
2023/06/18 02:20:28;;;;;;;14.40;12.90;;;;;;;19.28;54.16;101027.06;5020648;28;20021;-71
2023/06/18 02:22:53;;;;;;;14.32;12.93;;;;;;;19.21;54.03;101024.00;5022940;28;20056;-70
2023/06/18 02:25:19;;;;;;;13.70;12.20;;;;;;;19.16;54.36;101032.50;5018762;28;20032;-71
2023/06/18 02:27:58;;;;;;;16.50;13.18;;;;;;;19.10;54.16;101027.63;5021678;28;20039;-71
2023/06/18 02:30:31;;;;;;;14.13;12.82;;;;;;;19.11;55.13;101029.34;5025602;28;20041;-72
2023/06/18 02:32:58;;;;;;;15.03;13.50;;;;;;;19.08;54.55;101034.13;5039874;28;20029;-72
2023/06/18 02:35:24;;;;;;;13.90;12.52;;;;;;;19.10;55.05;101027.63;5042256;28;20052;-72
2023/06/18 02:37:50;;;;;;;14.63;12.65;;;;;;;18.90;55.14;101021.19;5040935;28;20104;-72
2023/06/18 02:40:15;;;;;;;13.63;12.27;;;;;;;18.94;55.51;101019.09;5036276;28;20112;-72
2023/06/18 02:42:47;;;;;;;13.57;12.18;;;;;;;18.92;55.48;101010.25;5041307;28;20398;-70
2023/06/18 02:45:24;;;;;;;14.20;12.80;;;;;;;18.81;55.08;101015.69;5041011;28;20562;-70
2023/06/18 02:47:50;;;;;;;13.57;12.18;;;;;;;18.84;55.75;101007.34;5022337;28;20020;-69
2023/06/18 02:50:16;;;;;;;13.77;12.48;;;;;;;18.76;56.25;101007.13;5023989;28;20098;-70
2023/06/18 02:52:43;;;;;;;13.82;12.43;;;;;;;18.77;56.07;101025.88;5042076;28;20363;-70
2023/06/18 02:55:10;;;;;;;19.05;12.48;;;;;;;18.70;56.30;101010.34;5037188;28;20380;-70
2023/06/18 02:57:36;;;;;;;14.55;12.52;;;;;;;18.77;56.01;101012.41;5042142;28;20104;-71
2023/06/18 03:00:09;;;;;;;13.30;12.10;;;;;;;18.71;56.41;101012.03;5038700;28;20036;-70
2023/06/18 03:02:35;;;;;;;15.40;12.98;;;;;;;18.66;56.17;101010.56;5040046;28;20032;-71
2023/06/18 03:05:04;;;;;;;13.50;12.10;;;;;;;18.67;56.46;101012.25;5038860;28;20494;-70
2023/06/18 03:07:30;;;;;;;12.80;11.50;;;;;;;18.57;56.78;101005.91;5041064;28;20082;-71
2023/06/18 03:09:55;;;;;;;13.27;12.07;;;;;;;18.54;56.64;101011.56;5023678;28;20037;-71
2023/06/18 03:12:21;;;;;;;13.15;11.73;;;;;;;18.53;56.68;101007.16;5040599;28;20032;-71
2023/06/18 03:14:46;;;;;;;13.02;11.82;;;;;;;18.52;56.94;101018.03;5040871;28;20501;-71
2023/06/18 03:17:12;;;;;;;13.60;12.30;;;;;;;18.50;57.38;101026.25;5041882;28;20028;-71
2023/06/18 03:19:37;;;;;;;14.85;12.00;;;;;;;18.53;56.56;101023.31;5039777;28;20398;-70
2023/06/18 03:22:04;;;;;;;13.63;12.30;;;;;;;18.54;56.83;101026.88;5038669;28;20040;-69
2023/06/18 03:24:29;;;;;;;13.02;11.77;;;;;;;18.46;56.59;101023.94;5040879;28;20024;-69
2023/06/18 03:26:57;;;;;;;13.85;12.52;;;;;;;18.54;56.97;101026.88;5040997;28;20396;-70
2023/06/18 03:29:25;;;;;;;13.25;11.80;;;;;;;18.49;56.84;101019.16;5038013;28;20029;-70
2023/06/18 03:31:50;;;;;;;13.65;11.73;;;;;;;18.41;56.99;101017.09;5040355;28;20487;-70
2023/06/18 03:34:16;;;;;;;13.82;12.48;;;;;;;18.45;56.95;101015.00;5039832;28;20103;-70
2023/06/18 03:36:41;;;;;;;13.10;11.80;;;;;;;18.46;57.22;101016.72;5038240;28;20106;-70
2023/06/18 03:39:08;;;;;;;15.98;12.35;;;;;;;18.45;56.94;101022.25;5033820;28;20757;-70
2023/06/18 03:41:34;;;;;;;14.07;12.75;;;;;;;18.42;56.61;101020.63;5041275;28;20497;-71
2023/06/18 03:44:00;;;;;;;15.23;13.55;;;;;;;18.48;56.72;101024.69;5039019;28;20061;-71
2023/06/18 03:46:25;;;;;;;14.93;13.20;;;;;;;18.40;56.69;101014.53;5038387;28;20104;-71
2023/06/18 03:48:51;;;;;;;13.93;12.73;;;;;;;18.45;56.37;101022.25;5038688;28;20214;-70
2023/06/18 03:51:16;;;;;;;14.68;13.18;;;;;;;18.45;56.29;101017.69;5022670;28;20367;-71
2023/06/18 03:53:41;;;;;;;14.50;13.07;;;;;;;18.55;56.05;101023.19;5035254;28;20483;-70
2023/06/18 03:56:08;;;;;;;14.43;13.10;;;;;;;18.43;56.66;101016.94;5040136;28;20064;-71
2023/06/18 03:58:33;;;;;;;14.57;13.23;;;;;;;18.46;56.43;101027.50;5036272;28;20049;-70
2023/06/18 04:00:59;;;;;;;15.00;13.60;;;;;;;18.56;56.34;101031.16;5038440;28;20466;-70
2023/06/18 04:03:24;;;;;;;14.48;13.20;;;;;;;18.55;56.00;101036.66;5040157;28;20498;-70
2023/06/18 04:05:49;;;;;;;15.40;13.90;;;;;;;18.51;57.07;101038.75;5041568;28;20597;-70
2023/06/18 04:08:16;;;;;;;15.25;13.75;;;;;;;18.59;57.22;101038.13;5017520;28;20017;-70
2023/06/18 04:10:43;;;;;;;14.70;13.00;;;;;;;18.61;56.34;101046.97;5040192;28;20029;-69
2023/06/18 04:13:08;;;;;;;14.02;12.82;;;;;;;18.67;57.43;101041.06;5038971;28;20024;-70
2023/06/18 04:15:34;;;;;;;14.82;13.23;;;;;;;18.71;56.74;101039.88;5039120;28;20554;-71
2023/06/18 04:17:59;;;;;;;15.27;13.85;;;;;;;18.68;55.68;101040.06;5036633;28;20029;-72
2023/06/18 04:20:24;;;;;;;15.75;14.35;;;;;;;18.57;54.95;101035.56;5043447;28;20079;-73
2023/06/18 04:22:50;;;;;;;14.88;13.35;;;;;;;18.66;55.29;101042.06;5044657;28;20407;-71
2023/06/18 04:25:15;;;;;;;15.82;14.20;;;;;;;18.69;55.42;101040.94;5044464;28;20063;-71
2023/06/18 04:27:42;;;;;;;15.48;13.98;;;;;;;18.63;54.78;101035.06;5044638;28;20021;-71
2023/06/18 04:30:08;;;;;;;15.55;14.02;;;;;;;18.61;54.87;101036.19;5042528;28;20041;-71
2023/06/18 04:32:33;;;;;;;15.18;13.82;;;;;;;18.57;54.94;101032.03;5041835;28;20114;-71
2023/06/18 04:34:58;;;;;;;16.42;14.88;;;;;;;18.61;55.33;101039.72;5041146;28;20104;-71
2023/06/18 04:37:24;;;;;;;15.52;14.07;;;;;;;18.66;55.35;101026.72;5040688;28;20055;-70
2023/06/18 04:39:50;;;;;;;16.00;14.40;;;;;;;18.61;55.95;101036.19;5047851;28;20576;-71
2023/06/18 04:42:15;;;;;;;15.63;14.10;;;;;;;18.66;55.70;101032.13;5035651;28;20064;-71
2023/06/18 04:44:41;;;;;;;15.85;13.95;;;;;;;18.69;55.64;101035.56;5041738;28;20070;-71
2023/06/18 04:47:07;;;;;;;17.10;15.43;;;;;;;18.60;55.64;101029.06;5044280;28;20467;-71
2023/06/18 04:49:32;;;;;;;15.68;14.18;;;;;;;18.61;55.25;101025.41;5041886;28;20032;-71
2023/06/18 04:51:57;;;;;;;17.00;15.27;;;;;;;18.54;55.68;101026.88;5042999;28;20029;-71
2023/06/18 04:54:23;;;;;;;15.45;13.95;;;;;;;18.65;55.96;101024.16;5040174;28;20178;-71
2023/06/18 04:56:48;;;;;;;16.95;15.40;;;;;;;18.60;55.97;101026.34;5041249;28;20354;-71
2023/06/18 04:59:13;;;;;;;17.15;15.63;;;;;;;18.74;55.58;101033.38;5042298;28;20083;-71
2023/06/18 05:01:39;;;;;;;16.73;15.02;;;;;;;18.76;55.50;101034.94;5025278;28;20028;-71
2023/06/18 05:04:04;;;;;;;17.70;15.90;;;;;;;18.74;54.20;101034.22;5044164;28;20033;-70
2023/06/18 05:06:31;;;;;;;17.27;15.68;;;;;;;18.85;54.21;101041.41;5044393;28;20055;-71
2023/06/18 05:08:56;;;;;;;16.88;15.15;;;;;;;18.95;55.08;101036.13;5045077;28;20090;-72
2023/06/18 05:11:21;;;;;;;16.70;15.13;;;;;;;19.06;54.19;101050.44;5024638;28;20595;-69
2023/06/18 05:13:47;;;;;;;16.80;15.30;;;;;;;19.15;54.07;101054.22;5025321;28;20021;-71
2023/06/18 05:16:12;;;;;;;16.27;14.70;;;;;;;19.24;54.03;101047.19;5042512;28;20025;-71
2023/06/18 05:18:38;;;;;;;16.73;15.15;;;;;;;19.36;53.81;101047.00;5042689;28;20029;-71
2023/06/18 05:21:04;;;;;;;16.10;14.40;;;;;;;19.44;52.05;101046.38;5040234;28;20395;-71
2023/06/18 05:23:29;;;;;;;15.73;14.13;;;;;;;19.57;52.11;101051.56;5042292;28;20025;-70
2023/06/18 05:25:54;;;;;;;15.75;14.35;;;;;;;19.59;50.96;101042.34;5041290;28;20060;-71
2023/06/18 05:28:20;;;;;;;16.77;15.13;;;;;;;19.61;49.75;101039.56;5040897;28;20245;-71
2023/06/18 05:30:46;;;;;;;15.48;13.90;;;;;;;19.75;48.91;101046.47;5040987;28;20068;-74
2023/06/18 05:33:12;;;;;;;15.77;14.07;;;;;;;19.86;49.09;101057.22;5043834;28;20021;-70
2023/06/18 05:35:38;;;;;;;15.85;14.10;;;;;;;19.98;48.04;101048.03;5039608;28;20030;-70
2023/06/18 05:38:03;;;;;;;16.40;14.05;;;;;;;20.18;48.73;101058.94;5041179;28;20024;-70
2023/06/18 05:40:28;;;;;;;15.68;14.20;;;;;;;20.31;47.48;101049.59;5042263;28;20047;-70
2023/06/18 05:42:54;;;;;;;15.93;13.80;;;;;;;20.44;47.69;101053.91;5040146;28;20056;-71
2023/06/18 05:45:19;;;;;;;14.60;13.30;;;;;;;20.56;47.48;101051.00;5039914;28;20100;-70
2023/06/18 05:47:44;;;;;;;14.45;13.15;;;;;;;20.67;46.52;101055.47;5041448;28;20499;-71
2023/06/18 05:50:10;;;;;;;15.60;13.02;;;;;;;20.74;46.59;101053.91;5042735;28;20565;-70
2023/06/18 05:52:35;;;;;;;13.52;12.25;;;;;;;20.93;46.24;101063.91;5042938;28;20525;-70
2023/06/18 05:55:06;;;;;;;14.48;13.10;;;;;;;20.97;45.69;101059.94;5043545;28;20518;-70
2023/06/18 05:57:31;;;;;;;14.90;12.35;;;;;;;21.06;45.63;101053.66;5037449;28;20029;-70
2023/06/18 05:59:57;;;;;;;13.35;12.13;;;;;;;21.28;45.03;101060.69;5043342;28;20438;-71
2023/06/18 06:02:22;;;;;;;12.77;11.45;;;;;;;21.38;44.65;101066.97;5038758;28;20057;-71
2023/06/18 06:04:47;;;;;;;12.35;11.25;;;;;;;21.53;45.28;101064.69;5042286;28;20052;-71
2023/06/18 06:07:13;;;;;;;12.88;11.25;;;;;;;21.75;44.80;101063.53;5038530;28;20032;-71
2023/06/18 06:09:38;;;;;;;12.32;11.02;;;;;;;21.93;43.77;101065.50;5042325;28;20029;-71
2023/06/18 06:12:03;;;;;;;13.82;11.65;;;;;;;22.13;44.17;101061.75;5018791;28;20120;-70
2023/06/18 06:14:29;;;;;;;12.32;11.13;;;;;;;22.30;43.09;101062.84;5039515;28;20071;-71
2023/06/18 06:16:57;;;;;;;12.13;10.70;;;;;;;22.49;43.25;101049.22;5023541;28;20037;-69
2023/06/18 06:19:23;;;;;;;12.80;10.57;;;;;;;22.83;41.95;101063.00;5034681;28;20143;-71
2023/06/18 06:21:49;;;;;;;12.75;11.07;;;;;;;23.01;42.07;101060.34;5041361;28;20035;-70
2023/06/18 06:24:15;;;;;;;12.60;10.27;;;;;;;23.30;41.55;101062.00;5040836;28;20033;-69
2023/06/18 06:26:41;;;;;;;11.43;9.38;;;;;;;23.60;40.87;101063.44;5036540;28;20035;-72
2023/06/18 06:29:06;;;;;;;11.23;10.15;;;;;;;23.79;40.60;101063.28;5038890;28;20033;-71
2023/06/18 06:31:31;;;;;;;10.75;9.65;;;;;;;23.81;40.07;101066.69;5037934;28;20048;-71
2023/06/18 06:33:57;;;;;;;11.52;10.05;;;;;;;23.79;41.06;101071.44;5039756;28;20545;-72
2023/06/18 06:36:22;;;;;;;10.20;9.20;;;;;;;23.65;41.95;101082.88;5040179;28;20059;-71
2023/06/18 06:38:48;;;;;;;12.10;9.90;;;;;;;23.44;41.18;101096.75;5041194;28;20016;-70
2023/06/18 06:41:13;;;;;;;53.28;14.88;;;;;;;23.07;41.36;101119.47;5037442;28;20569;-70
2023/06/18 06:43:39;;;;;;;54.05;14.63;;;;;;;22.78;42.39;101121.44;5039380;28;20102;-70
2023/06/18 06:46:04;;;;;;;11.40;10.13;;;;;;;22.51;42.70;101112.28;5041342;28;20029;-71
2023/06/18 06:48:31;;;;;;;12.18;9.70;;;;;;;22.37;43.04;101126.34;5039564;28;20086;-70
2023/06/18 06:50:56;;;;;;;10.50;9.40;;;;;;;22.24;43.67;101126.66;5041510;28;20032;-70
2023/06/18 06:53:21;;;;;;;9.95;8.93;;;;;;;22.10;43.11;101118.94;5041449;28;20048;-69
2023/06/18 06:55:47;;;;;;;8.80;8.00;;;;;;;22.17;43.00;101117.38;5040001;28;20098;-70
2023/06/18 06:58:13;;;;;;;8.90;7.97;;;;;;;22.23;42.90;101116.78;5036585;28;20021;-68
2023/06/18 07:00:38;;;;;;;10.13;8.35;;;;;;;22.25;42.14;101114.81;5033719;28;20171;-69
2023/06/18 07:03:03;;;;;;;12.20;7.80;;;;;;;22.37;42.22;101118.19;5039992;28;20078;-69
2023/06/18 07:05:29;;;;;;;10.93;7.85;;;;;;;22.50;41.68;101112.44;5020401;28;20025;-69
2023/06/18 07:07:54;;;;;;;9.50;7.78;;;;;;;22.61;41.72;101118.53;5041559;28;20268;-67
2023/06/18 07:10:20;;;;;;;25.20;9.20;;;;;;;22.83;41.49;101140.84;5041537;28;20420;-69
2023/06/18 07:12:45;;;;;;;149.80;20.00;;;;;;;22.88;41.07;101117.69;5040283;28;20098;-68
2023/06/18 07:15:10;;;;;;;11.57;8.02;;;;;;;22.90;40.87;101130.22;5035627;28;20652;-68
2023/06/18 07:17:36;;;;;;;16.75;8.48;;;;;;;22.95;41.18;101127.94;5038973;28;20040;-69
2023/06/18 07:20:01;;;;;;;14.13;8.90;;;;;;;23.00;41.16;101123.78;5038967;28;20450;-70
2023/06/18 07:22:26;;;;;;;8.52;7.63;;;;;;;23.07;41.70;101127.63;5040135;28;20120;-68
2023/06/18 07:24:53;;;;;;;11.32;7.70;;;;;;;23.11;41.74;101133.56;5036660;28;20024;-69
2023/06/18 07:27:19;;;;;;;9.52;7.95;;;;;;;23.26;41.87;101126.63;5038289;28;20037;-69
2023/06/18 07:29:45;;;;;;;8.43;7.68;;;;;;;23.34;41.89;101118.56;5034519;28;20059;-70
2023/06/18 07:32:10;;;;;;;10.73;8.35;;;;;;;23.57;41.89;101112.66;5038338;28;20025;-69
2023/06/18 07:34:35;;;;;;;9.63;8.13;;;;;;;23.85;41.80;101121.59;5038636;28;20029;-69
2023/06/18 07:37:01;;;;;;;8.60;7.82;;;;;;;24.11;40.82;101108.84;5036768;28;20047;-69
2023/06/18 07:39:26;;;;;;;8.82;7.97;;;;;;;24.46;40.49;101119.84;5038732;28;20391;-69
2023/06/18 07:41:52;;;;;;;9.52;8.57;;;;;;;24.68;40.91;101121.97;5034346;28;20429;-69
2023/06/18 07:44:17;;;;;;;8.82;7.78;;;;;;;24.94;40.71;101121.06;5039698;28;20113;-69
2023/06/18 07:46:43;;;;;;;9.27;8.38;;;;;;;25.00;39.58;101123.13;5038701;28;20029;-69
2023/06/18 07:49:09;;;;;;;11.40;8.25;;;;;;;25.14;40.50;101127.97;5041115;28;20025;-69
2023/06/18 07:51:35;;;;;;;8.13;7.38;;;;;;;25.46;39.30;101116.28;5038628;28;20063;-69
2023/06/18 07:54:03;;;;;;;8.90;8.00;;;;;;;25.50;38.66;101122.22;5038723;28;20029;-70
2023/06/18 07:56:29;;;;;;;9.88;8.20;;;;;;;25.65;39.19;101115.09;5039090;28;20032;-70
2023/06/18 07:58:54;;;;;;;8.00;7.13;;;;;;;25.75;39.14;101104.03;5039842;28;20029;-70
2023/06/18 08:01:19;;;;;;;7.68;6.97;;;;;;;25.74;38.95;101114.06;5037562;28;20024;-70
2023/06/18 08:03:45;;;;;;;8.90;7.88;;;;;;;25.71;38.45;101119.00;5038552;28;20021;-70
2023/06/18 08:06:10;;;;;;;8.45;7.63;;;;;;;25.66;38.93;101108.63;5018912;28;20264;-71
2023/06/18 08:08:35;;;;;;;8.32;7.63;;;;;;;25.73;39.27;101122.44;5021480;28;20499;-71
2023/06/18 08:11:01;;;;;;;8.30;7.60;;;;;;;25.62;39.48;101112.72;5039964;28;20560;-71
2023/06/18 08:13:26;;;;;;;8.18;7.35;;;;;;;25.95;39.59;101104.56;5038273;28;20032;-71
2023/06/18 08:15:52;;;;;;;7.85;7.15;;;;;;;26.25;39.34;101103.84;5037475;28;20225;-71
2023/06/18 08:18:17;;;;;;;6.85;6.22;;;;;;;26.30;38.48;101106.06;5035975;28;20111;-71
2023/06/18 08:20:42;;;;;;;8.70;7.30;;;;;;;26.27;38.19;101100.94;5037382;28;20029;-71
2023/06/18 08:23:08;;;;;;;6.75;6.15;;;;;;;26.23;37.88;101094.13;5036270;28;20147;-71
2023/06/18 08:25:33;;;;;;;7.60;6.68;;;;;;;26.16;38.51;101101.28;5036833;28;20029;-71
2023/06/18 08:27:58;;;;;;;8.55;6.38;;;;;;;26.12;38.91;101100.78;5040944;28;20044;-71
2023/06/18 08:30:24;;;;;;;7.15;6.55;;;;;;;26.05;39.01;101095.19;5039978;28;20040;-72
2023/06/18 08:32:50;;;;;;;7.50;6.80;;;;;;;26.05;39.25;101103.38;5036702;28;20025;-71
2023/06/18 08:35:16;;;;;;;6.93;6.22;;;;;;;25.98;38.89;101099.63;5040256;28;20021;-71
2023/06/18 08:37:42;;;;;;;9.00;6.50;;;;;;;25.87;39.80;101094.50;5036526;28;20689;-72
2023/06/18 08:40:12;;;;;;;7.00;6.30;;;;;;;25.83;39.54;101091.28;5034056;28;20088;-72
2023/06/18 08:42:37;;;;;;;7.97;6.50;;;;;;;25.74;40.38;101084.09;5038633;28;20032;-70
2023/06/18 08:45:03;;;;;;;7.60;6.88;;;;;;;25.65;39.87;101095.16;5034475;28;20033;-70
2023/06/18 08:47:31;;;;;;;7.20;6.50;;;;;;;25.58;40.58;101097.72;5039238;28;20025;-69
2023/06/18 08:49:58;;;;;;;7.07;6.47;;;;;;;25.42;40.64;101092.28;5040630;28;20070;-69
2023/06/18 08:52:27;;;;;;;8.18;7.32;;;;;;;25.28;41.39;101097.34;5021025;28;20044;-69
2023/06/18 08:54:56;;;;;;;9.23;6.93;;;;;;;25.28;41.23;101093.78;5038882;28;20036;-71
2023/06/18 08:57:33;;;;;;;7.35;6.68;;;;;;;25.23;41.85;101097.00;5032484;28;20370;-70
2023/06/18 08:59:59;;;;;;;8.43;7.18;;;;;;;25.07;41.66;101096.94;5037373;28;20043;-70
2023/06/18 09:02:26;;;;;;;9.68;6.85;;;;;;;24.98;42.05;101095.22;5035806;28;20029;-70
2023/06/18 09:04:51;;;;;;;8.05;7.25;;;;;;;24.87;42.35;101099.06;5039135;28;20056;-70
2023/06/18 09:07:17;;;;;;;7.47;6.78;;;;;;;24.82;42.45;101096.84;5041769;28;20053;-70
2023/06/18 09:09:43;;;;;;;9.20;7.57;;;;;;;24.82;42.77;101099.56;5040673;28;20491;-70
2023/06/18 09:12:08;;;;;;;9.07;6.97;;;;;;;24.87;43.08;101100.94;5036417;28;20075;-73
2023/06/18 09:14:34;;;;;;;8.88;7.03;;;;;;;24.91;42.39;101097.72;5044009;28;20031;-71
2023/06/18 09:16:59;;;;;;;8.40;7.65;;;;;;;24.93;42.50;101097.59;5042771;28;20114;-73
2023/06/18 09:19:26;;;;;;;8.30;7.20;;;;;;;24.92;42.35;101102.19;5040975;28;20695;-70
2023/06/18 09:21:51;;;;;;;7.78;7.07;;;;;;;24.88;42.76;101102.69;5040738;28;20113;-69
2023/06/18 09:24:21;;;;;;;7.90;7.20;;;;;;;24.76;43.07;101111.13;5040106;28;20119;-69
2023/06/18 09:26:50;;;;;;;11.50;7.28;;;;;;;24.69;43.02;101101.06;5041190;28;20025;-70
2023/06/18 09:29:15;;;;;;;9.02;7.10;;;;;;;24.68;43.54;101107.53;5036238;28;20116;-72
2023/06/18 09:31:46;;;;;;;9.80;6.63;;;;;;;24.54;43.38;101107.13;5023799;28;20094;-70
2023/06/18 09:34:15;;;;;;;8.00;7.20;;;;;;;24.49;44.28;101111.34;5039091;28;20033;-71
2023/06/18 09:36:42;;;;;;;8.18;7.40;;;;;;;24.41;44.83;101105.84;5041146;28;20079;-74
2023/06/18 09:39:22;;;;;;;7.65;6.95;;;;;;;24.34;44.99;101106.47;5034864;28;20028;-71
2023/06/18 09:41:49;;;;;;;8.15;7.18;;;;;;;24.27;45.48;101113.56;5036822;28;20123;-70
2023/06/18 09:44:16;;;;;;;10.95;8.43;;;;;;;23.99;49.97;101103.84;5041177;28;20086;-72
2023/06/18 09:46:46;;;;;;;10.32;7.70;;;;;;;23.57;52.18;101105.34;5042256;28;20064;-69
2023/06/18 09:49:20;;;;;;;8.63;7.35;;;;;;;23.04;57.84;101108.91;5037161;28;20075;-69
2023/06/18 09:51:46;;;;;;;7.63;6.88;;;;;;;22.67;59.14;101111.66;5034678;28;20321;-70
2023/06/18 09:54:11;;;;;;;8.20;7.40;;;;;;;22.22;60.54;101098.81;5036408;28;20025;-70
2023/06/18 09:56:38;;;;;;;7.95;7.15;;;;;;;21.50;66.34;101108.31;5042371;28;20094;-69
2023/06/18 09:59:04;;;;;;;8.13;7.35;;;;;;;21.12;67.37;101101.84;5042709;28;20379;-68
2023/06/18 10:01:47;;;;;;;9.38;7.65;;;;;;;21.11;66.82;101093.88;5039414;28;20029;-69
2023/06/18 10:04:12;;;;;;;9.05;7.75;;;;;;;21.52;65.81;101094.63;5040376;28;20487;-69
2023/06/18 10:06:42;;;;;;;8.40;6.97;;;;;;;21.98;63.80;101085.72;5040086;28;20025;-69
2023/06/18 10:09:08;;;;;;;7.88;7.18;;;;;;;22.31;63.52;101087.09;5034796;28;20033;-68
2023/06/18 10:11:35;;;;;;;8.73;7.35;;;;;;;22.74;61.04;101082.91;5037233;28;20032;-69
2023/06/18 10:14:05;;;;;;;7.15;6.60;;;;;;;23.16;57.76;101079.69;5037999;28;20059;-69
2023/06/18 10:16:32;;;;;;;7.63;6.93;;;;;;;23.50;59.67;101081.69;5037877;28;20029;-69
2023/06/18 10:19:22;;;;;;;7.38;6.78;;;;;;;23.88;53.76;101076.94;5021834;28;20511;-71
2023/06/18 10:21:59;;;;;;;8.57;7.63;;;;;;;24.11;54.10;101069.94;5040371;28;20037;-69
2023/06/18 10:24:56;;;;;;;8.40;7.57;;;;;;;24.58;50.82;101072.28;5037002;28;20060;-69
2023/06/18 10:27:21;;;;;;;9.02;7.38;;;;;;;24.82;50.32;101061.47;5010402;28;20757;-69
2023/06/18 10:29:46;;;;;;;8.43;7.63;;;;;;;25.10;48.41;101072.13;5036890;28;20024;-69
2023/06/18 10:32:13;;;;;;;7.72;7.13;;;;;;;25.07;47.88;101064.25;5036613;28;20049;-69
2023/06/18 10:34:39;;;;;;;8.20;7.45;;;;;;;25.30;49.13;101059.91;5040108;28;20033;-69
2023/06/18 10:37:06;;;;;;;8.82;7.55;;;;;;;25.24;45.94;101063.28;5042099;28;20017;-70
2023/06/18 10:39:33;;;;;;;8.30;7.50;;;;;;;25.35;46.37;101062.13;5038197;28;20073;-70
2023/06/18 10:42:11;;;;;;;8.43;7.63;;;;;;;25.55;46.96;101055.31;5017541;28;20484;-70
2023/06/18 10:44:49;;;;;;;8.00;7.20;;;;;;;25.90;46.38;101047.81;5040289;28;20023;-70
2023/06/18 10:47:24;;;;;;;10.10;7.07;;;;;;;26.11;45.92;101049.97;5036141;28;20040;-70
2023/06/18 10:50:07;;;;;;;7.78;7.07;;;;;;;26.57;45.37;101051.03;5041918;28;20031;-71
2023/06/18 10:52:34;;;;;;;;;;;;;;;26.90;44.88;101050.03;5037831;28;20031;-69
2023/06/18 10:55:09;;;;;;;7.70;6.95;;;;;;;26.42;44.54;101055.53;5042314;28;19908;-70
2023/06/18 10:57:42;;;;;;;8.40;7.60;;;;;;;26.48;44.64;101054.00;5033198;28;20017;-71
2023/06/18 11:00:24;;;;;;;7.47;6.80;;;;;;;26.67;45.62;101049.97;5042562;28;20037;-70
2023/06/18 11:02:58;;;;;;;7.68;7.07;;;;;;;26.46;45.48;101042.38;5040906;28;20024;-71
2023/06/18 11:05:32;;;;;;;8.00;7.30;;;;;;;26.44;46.31;101037.13;5039801;28;20036;-69
2023/06/18 11:08:03;;;;;;;10.90;8.20;;;;;;;26.22;46.61;101035.97;5038820;28;20129;-70
2023/06/18 11:10:36;;;;;;;8.82;7.88;;;;;;;26.13;47.80;101028.00;5038169;28;20029;-69
2023/06/18 11:13:09;;;;;;;8.75;8.02;;;;;;;26.14;47.83;101029.69;5038358;28;20526;-70
2023/06/18 11:15:36;;;;;;;8.55;7.75;;;;;;;26.09;47.34;101032.97;5041295;28;20032;-68
2023/06/18 11:18:02;;;;;;;8.40;7.68;;;;;;;25.87;46.85;101031.78;5040090;28;20030;-69